createdAt,value
2022-08-19T00:03:28.042Z,17.4
2022-08-19T00:13:28.924Z,17.2
2022-08-19T00:23:29.871Z,17.2
2022-08-19T00:33:30.770Z,17.1
2022-08-19T00:43:31.830Z,17
2022-08-19T00:53:32.326Z,16.9
2022-08-19T01:03:40.260Z,16.8
2022-08-19T01:13:44.717Z,16.8
2022-08-19T01:23:34.250Z,16.7
2022-08-19T01:33:34.738Z,16.7
2022-08-19T01:43:35.038Z,16.6
2022-08-19T01:53:35.469Z,16.5
2022-08-19T02:03:35.976Z,16.5
2022-08-19T02:13:36.647Z,16.5
2022-08-19T02:23:36.766Z,16.5
2022-08-19T02:33:37.517Z,16.5
2022-08-19T02:43:38.610Z,16.4
2022-08-19T02:53:39.101Z,16.3
2022-08-19T03:03:40.075Z,16.4
2022-08-19T03:13:40.594Z,16.3
2022-08-19T03:23:41.504Z,16.2
2022-08-19T03:33:42.104Z,16.2
2022-08-19T03:53:42.927Z,16.1
2022-08-19T04:03:43.300Z,16
2022-08-19T04:13:44.035Z,16
2022-08-19T04:23:45.541Z,15.9
2022-08-19T04:33:45.901Z,16.1
2022-08-19T04:43:46.143Z,16.1
2022-08-19T04:53:46.545Z,16.2
2022-08-19T05:03:47.020Z,16.3
2022-08-19T05:13:47.699Z,16.4
2022-08-19T05:23:47.990Z,16.5
2022-08-19T05:33:48.445Z,16.6
2022-08-19T05:43:48.602Z,16.9
2022-08-19T05:53:48.702Z,17.1
2022-08-19T06:03:49.766Z,17.2
2022-08-19T06:13:50.512Z,17.4
2022-08-19T06:23:51.469Z,17.9
2022-08-19T06:33:52.461Z,18.4
2022-08-19T06:53:54.324Z,19.1
2022-08-19T07:03:55.366Z,19.5
2022-08-19T07:13:56.091Z,19.8
2022-08-19T07:23:56.614Z,20
2022-08-19T07:33:56.745Z,20.5
2022-08-19T07:43:57.224Z,21.2
2022-08-19T07:53:57.624Z,21.7
2022-08-19T08:03:57.948Z,22.1
2022-08-19T08:14:00.623Z,22.1
2022-08-19T08:33:59.904Z,22.4
2022-08-19T08:44:00.927Z,22.9
2022-08-19T08:54:01.354Z,23.8
2022-08-19T09:04:02.631Z,24.2
2022-08-19T09:14:02.966Z,24.3
2022-08-19T09:24:03.725Z,24.5
2022-08-19T09:34:04.473Z,24.9
2022-08-19T09:44:04.866Z,25.2
2022-08-19T09:54:05.219Z,25.6
2022-08-19T10:04:14.821Z,25.6
2022-08-19T10:14:06.295Z,25.4
2022-08-19T10:24:07.083Z,24.8
2022-08-19T10:34:07.659Z,25.4
2022-08-19T10:54:12.493Z,26.2
2022-08-19T11:04:09.224Z,25.5
2022-08-19T11:14:09.609Z,25.7
2022-08-19T11:24:10.595Z,26
2022-08-19T11:34:11.412Z,26.4
2022-08-19T11:44:11.721Z,26.9
2022-08-19T11:54:12.327Z,27.1
2022-08-19T12:14:14.571Z,27.4
2022-08-19T12:24:13.619Z,27.2
2022-08-19T12:34:14.563Z,27.2
2022-08-19T12:54:15.304Z,27.4
2022-08-19T13:04:16.336Z,28
2022-08-19T13:14:16.578Z,28
2022-08-19T13:24:17.162Z,28.4
2022-08-19T13:44:18.454Z,27.4
2022-08-19T13:54:18.754Z,28
2022-08-19T14:04:19.771Z,28.1
2022-08-19T14:14:20.443Z,27.4
2022-08-19T14:24:21.417Z,26.9
2022-08-19T14:34:21.708Z,27.8
2022-08-19T14:54:23.049Z,28.2
2022-08-19T15:04:23.263Z,28.2
2022-08-19T15:14:23.685Z,27.8
2022-08-19T15:24:24.435Z,27.5
2022-08-19T15:34:24.811Z,27.3
2022-08-19T15:44:25.606Z,27.5
2022-08-19T15:54:25.733Z,27.7
2022-08-19T16:04:26.702Z,27.8
2022-08-19T16:14:27.664Z,27.6
2022-08-19T16:34:28.729Z,26.8
2022-08-19T16:54:32.458Z,26.5
2022-08-19T17:04:29.608Z,26.2
2022-08-19T17:14:30.610Z,26.1
2022-08-19T17:24:30.747Z,26.1
2022-08-19T17:34:31.526Z,26.2
2022-08-19T17:44:32.076Z,25.9
2022-08-19T17:54:33.880Z,25.4
2022-08-19T18:04:32.821Z,25.1
2022-08-19T18:14:34.048Z,25
2022-08-19T18:24:34.465Z,24.8
2022-08-19T18:34:34.659Z,24.5
2022-08-19T18:44:34.996Z,24.4
2022-08-19T18:54:35.624Z,24.1
2022-08-19T19:04:35.919Z,23.8
2022-08-19T19:14:48.962Z,23.6
2022-08-19T19:24:41.786Z,23.3
2022-08-19T19:34:42.314Z,23.1
2022-08-19T19:44:42.423Z,22.9
2022-08-19T19:54:47.677Z,22.6
2022-08-19T20:04:44.397Z,22.4
2022-08-19T20:14:45.170Z,22.2
2022-08-19T20:34:46.180Z,21.9
2022-08-19T20:44:46.586Z,21.8
2022-08-19T20:54:47.290Z,21.6
2022-08-19T21:04:47.676Z,21.4
2022-08-19T21:14:48.401Z,21.3
2022-08-19T21:24:48.605Z,21.3
2022-08-19T21:34:49.479Z,21.3
2022-08-19T21:44:50.505Z,21.3
2022-08-19T21:54:50.953Z,21.2
2022-08-19T22:04:51.112Z,21.2
2022-08-19T22:14:51.377Z,21.2
2022-08-19T22:24:51.931Z,21.1
2022-08-19T22:34:52.861Z,21
2022-08-19T22:44:53.023Z,20.9
2022-08-19T22:54:53.312Z,20.8
2022-08-19T23:04:53.777Z,20.8
2022-08-19T23:14:54.810Z,20.8
2022-08-19T23:24:56.067Z,20.7
2022-08-19T23:34:56.735Z,20.6
2022-08-19T23:44:57.624Z,20.6
2022-08-19T23:54:58.377Z,20.7
